Погода Потапенкона 2 недели

Ростовская область, Россия

13 - 26 июля
  • 13июля
    Сегодня
    +16°
    +32°
    Ясно и безоблачно
    ВремяПогодаТемператураВлажностьДавлениеВетер, м/сВероятность осадков
    00:00Ясно и безоблачно+20°C26 %752 мм1.9 м/с2 %
    03:00Ясно и безоблачно+18°C34 %752 мм3.1 м/с2 %
    06:00Ясно и безоблачно+19°C37 %753 мм3.2 м/с2 %
    09:00Ясно и безоблачно+27°C27 %753 мм3.7 м/с2 %
    12:00Ясно и безоблачно+30°C20 %752 мм4.5 м/с2 %
    15:00Ясно и безоблачно+31°C14 %751 мм5.2 м/с2 %
    18:00Ясно и безоблачно+30°C15 %750 мм5.1 м/с2 %
    21:00Ясно и безоблачно+24°C23 %751 мм3.5 м/с2 %
  • 14июля
    Воскресенье
    +20°
    +33°
    Ясно и безоблачно
    ВремяПогодаТемператураВлажностьДавлениеВетер, м/сВероятность осадков
    00:00Ясно и безоблачно+20°C30 %751 мм3.4 м/с2 %
    03:00Ясно и безоблачно+17°C35 %751 мм3.0 м/с2 %
    06:00Ясно и безоблачно+19°C35 %752 мм3.5 м/с2 %
    09:00Ясно и безоблачно+27°C23 %752 мм3.9 м/с2 %
    12:00Ясно и безоблачно+30°C24 %751 мм4.3 м/с2 %
    15:00Ясно и безоблачно+32°C26 %751 мм4.4 м/с2 %
    18:00Ясно и безоблачно+32°C28 %750 мм4.1 м/с2 %
    21:00Ясно и безоблачно+27°C35 %751 мм3.0 м/с2 %
  • 15июля
    Понедельник
    +22°
    +36°
    Ясно и безоблачно
    ВремяПогодаТемператураВлажностьДавлениеВетер, м/сВероятность осадков
    00:00Ясно и безоблачно+24°C38 %751 мм3.2 м/с2 %
    03:00Ясно и безоблачно+21°C44 %751 мм2.8 м/с2 %
    06:00Ясно и безоблачно+22°C42 %751 мм3.5 м/с2 %
    09:00Ясно и безоблачно+32°C30 %752 мм3.1 м/с2 %
    12:00Ясно и безоблачно+35°C20 %751 мм3.9 м/с2 %
    15:00Ясно и безоблачно+36°C18 %750 мм3.7 м/с2 %
    18:00Ясно и безоблачно+35°C19 %750 мм3.7 м/с2 %
    21:00Ясно и безоблачно+29°C26 %751 мм3.1 м/с2 %
  • 16июля
    Вторник
    +22°
    +38°
    Практически безоблачно
    ВремяПогодаТемператураВлажностьДавлениеВетер, м/сВероятность осадков
    00:00Ясно и безоблачно+25°C33 %751 мм2.6 м/с2 %
    03:00Ясно и безоблачно+23°C38 %751 мм2.1 м/с2 %
    06:00Ясно и безоблачно+25°C36 %751 мм2.8 м/с2 %
    09:00Ясно и безоблачно+34°C23 %752 мм2.6 м/с2 %
    12:00Практически безоблачно+36°C21 %751 мм3.9 м/с2 %
    15:00Практически безоблачно+37°C20 %751 мм3.0 м/с2 %
    18:00Небольшая облачность+36°C20 %750 мм4.5 м/с2 %
    21:00Ясно и безоблачно+30°C27 %751 мм4.4 м/с2 %
  • 17июля
    Среда
    +20°
    +38°
    Облачно с прояснениями
    ВремяПогодаТемператураВлажностьДавлениеВетер, м/сВероятность осадков
    00:00Ясно и безоблачно+26°C30 %751 мм3.7 м/с2 %
    03:00Ясно и безоблачно+23°C33 %752 мм2.6 м/с2 %
    06:00Ясно и безоблачно+24°C33 %752 мм3.1 м/с2 %
    09:00Ясно и безоблачно+33°C22 %753 мм3.3 м/с2 %
    12:00Небольшая облачность+36°C20 %753 мм3.7 м/с2 %
    15:00Облачно с прояснениями+37°C19 %752 мм3.4 м/с2 %
    18:00Ясно и безоблачно+36°C20 %751 мм4.6 м/с2 %
    21:00Ясно и безоблачно+30°C24 %752 мм2.4 м/с2 %
Мы используем cookies
Соглашаюсь